< < Back
Terminal Aerodrome Forecast


Current Version              Previous Versions:   1  2  3  4  5  6  7  8  9  

Terminal Aerodrome Forecast

643
FTUS44 KMRX 281720
TAFCHA
TAF
KCHA 281720Z 2818/0118 36006KT P6SM SCT150
     FM010000 04004KT P6SM SCT035 BKN100
     FM010400 10003KT P6SM OVC035
     FM010900 14005KT P6SM OVC020
     FM011400 16005KT P6SM OVC010=

Latest METAR

815
SAUS80 KWBC 282000 RRA
MTRCHA
METAR KCHA 281953Z 10005KT 10SM SCT120 BKN250 10/M03 A3050 RMK AO2
SLP330 T01001028


USA.gov is the U.S. government's official web portal to all federal, state and local government web resources and services.